Time;durP1;ratioP1;P1;durP2;ratioP2;P2;SDS_P1;SDS_P2;PMS_P1;PMS_P2;Temp;Humidity;BMP_temperature;BMP_pressure;BME280_temperature;BME280_humidity;BME280_pressure;Samples;Min_cycle;Max_cycle;Signal;HPM_P1;HPM_P2
2024/04/23 00:00:24;;;;;;;10.18;6.18;;;0.60;99.90;;;3.62;100.00;101461.59;5435175;26;20007;-78
2024/04/23 00:02:50;;;;;;;9.63;5.68;;;0.60;99.90;;;3.44;100.00;101450.72;5433763;26;20372;-79
2024/04/23 00:05:16;;;;;;;13.50;6.78;;;0.70;99.90;;;3.50;100.00;101465.47;5413157;26;20053;-81
2024/04/23 00:07:42;;;;;;;8.57;5.72;;;0.70;99.90;;;3.24;100.00;101413.09;5409071;26;20011;-80
2024/04/23 00:10:08;;;;;;;13.25;6.07;;;0.60;99.90;;;3.55;100.00;101450.53;5426140;26;20007;-79
2024/04/23 00:12:34;;;;;;;11.27;6.68;;;0.60;99.90;;;3.55;100.00;101437.03;5403050;26;20022;-79
2024/04/23 00:15:00;;;;;;;11.05;6.32;;;0.50;99.90;;;3.38;100.00;101409.03;5405869;26;20024;-78
2024/04/23 00:17:26;;;;;;;13.65;6.55;;;0.50;99.90;;;3.43;100.00;101455.28;5430190;26;20003;-79
2024/04/23 00:19:53;;;;;;;12.07;6.10;;;0.50;99.90;;;3.24;100.00;101391.50;5393417;26;19995;-79
2024/04/23 00:22:19;;;;;;;9.98;6.25;;;0.50;99.90;;;3.69;100.00;101434.81;5367157;26;20004;-78
2024/04/23 00:24:45;;;;;;;11.30;6.38;;;0.40;99.90;;;3.57;100.00;101431.47;5403587;26;20006;-79
2024/04/23 00:27:12;;;;;;;11.05;6.10;;;0.40;99.90;;;3.94;100.00;101435.06;5385346;26;20366;-79
2024/04/23 00:29:37;;;;;;;12.23;6.63;;;0.40;99.90;;;3.94;100.00;101429.66;5425626;26;20089;-79
2024/04/23 00:32:04;;;;;;;10.65;5.82;;;0.30;99.90;;;3.95;98.62;101399.84;5395071;26;20003;-81
2024/04/23 00:34:30;;;;;;;9.20;5.88;;;0.30;99.90;;;3.95;95.51;101377.38;5390610;26;20288;-78
2024/04/23 00:36:58;;;;;;;10.55;5.85;;;0.10;99.90;;;4.20;93.15;101415.41;5425675;26;20003;-79
2024/04/23 00:39:25;;;;;;;11.50;6.07;;;-0.10;99.90;;;4.05;91.75;101417.78;5416573;26;20010;-79
2024/04/23 00:41:52;;;;;;;11.50;6.85;;;-0.20;99.90;;;3.35;96.62;101385.06;5412189;26;19999;-79
2024/04/23 00:44:18;;;;;;;10.43;6.28;;;-0.10;99.90;;;3.38;100.00;101409.03;5394307;26;20034;-80
2024/04/23 00:46:46;;;;;;;10.85;6.60;;;0.20;99.90;;;3.48;100.00;101417.06;5396573;26;20067;-80
2024/04/23 00:49:15;;;;;;;12.30;6.82;;;0.30;99.90;;;3.55;100.00;101409.19;5402925;26;20007;-79
2024/04/23 00:51:48;;;;;;;14.90;6.82;;;0.30;99.90;;;3.66;100.00;101427.03;5444021;26;20000;-79
2024/04/23 00:54:17;;;;;;;14.25;7.00;;;0.40;99.90;;;3.64;100.00;101370.53;5419861;26;20007;-78
2024/04/23 00:56:44;;;;;;;11.73;6.90;;;0.40;99.90;;;3.44;100.00;101361.69;5413786;26;19999;-78
2024/04/23 00:59:16;;;;;;;11.55;6.57;;;0.30;99.90;;;3.38;100.00;101382.06;5413432;26;20076;-78
2024/04/23 01:01:44;;;;;;;10.93;6.65;;;0.30;99.90;;;3.29;100.00;101408.09;5431381;26;19999;-79
2024/04/23 01:04:11;;;;;;;;;;;0.40;99.90;;;3.48;100.00;101413.50;5400541;26;20000;-79
2024/04/23 01:06:38;;;;;;;12.23;6.25;;;0.40;99.90;;;3.56;100.00;101414.47;5424050;26;19925;-79
2024/04/23 01:09:04;;;;;;;11.45;5.93;;;0.40;99.90;;;3.52;100.00;101402.28;5431366;26;19999;-79
2024/04/23 01:11:34;;;;;;;14.82;6.45;;;0.40;99.90;;;3.74;100.00;101403.69;5434815;26;20010;-80
2024/04/23 01:14:03;;;;;;;11.02;6.85;;;0.30;99.90;;;3.73;100.00;101404.69;5392300;26;20335;-79
2024/04/23 01:16:37;;;;;;;10.02;6.07;;;0.20;99.90;;;3.63;100.00;101384.16;5386772;26;19999;-78
2024/04/23 01:19:07;;;;;;;13.52;6.68;;;0.10;99.90;;;3.55;100.00;101393.88;5411735;26;20107;-78
2024/04/23 01:22:04;;;;;;;10.65;6.40;;;0.10;99.90;;;3.72;100.00;101397.59;5397625;26;20062;-78
2024/04/23 01:24:37;;;;;;;12.52;6.47;;;0.00;99.90;;;3.56;100.00;101406.38;5381961;26;20040;-78
2024/04/23 01:27:03;;;;;;;11.43;7.28;;;0.00;99.90;;;3.39;100.00;101390.97;5440908;26;19999;-79
2024/04/23 01:29:31;;;;;;;10.95;6.35;;;0.00;99.90;;;3.76;100.00;101400.84;5423819;26;19999;-78
2024/04/23 01:32:01;;;;;;;10.93;6.25;;;-0.20;99.90;;;3.59;97.07;101368.28;5430346;26;20010;-78
2024/04/23 01:34:30;;;;;;;9.82;5.82;;;-0.30;99.90;;;3.12;94.48;101355.81;5432244;26;20000;-79
2024/04/23 01:36:57;;;;;;;10.60;6.18;;;-0.50;99.90;;;2.81;95.93;101384.88;5411729;26;20003;-78
2024/04/23 01:39:24;;;;;;;12.70;7.57;;;-0.70;99.90;;;2.97;97.03;101389.63;5456021;26;20333;-79
2024/04/23 01:41:52;;;;;;;12.15;6.70;;;-0.90;99.90;;;3.04;97.38;101362.94;5396503;26;19996;-79
2024/04/23 01:44:19;;;;;;;10.30;6.17;;;-0.90;99.90;;;3.08;97.59;101353.53;5396517;26;20007;-80
2024/04/23 01:46:45;;;;;;;11.60;6.88;;;-0.90;99.90;;;3.25;97.75;101371.63;5387224;26;20067;-79
2024/04/23 01:49:12;;;;;;;11.48;6.80;;;-0.90;99.90;;;3.27;98.00;101375.03;5406274;26;20010;-79
2024/04/23 01:51:38;;;;;;;12.52;6.97;;;-0.90;99.90;;;3.03;98.43;101340.50;5408617;26;20000;-79
2024/04/23 01:54:04;;;;;;;13.85;7.32;;;-1.00;99.90;;;3.17;100.00;101368.81;5405735;26;20015;-79
2024/04/23 01:56:30;;;;;;;12.60;7.85;;;-0.90;99.90;;;3.36;100.00;101378.66;5395017;26;20010;-79
2024/04/23 01:58:57;;;;;;;12.43;7.90;;;-0.90;99.90;;;3.37;100.00;101368.72;5427886;26;19998;-78
2024/04/23 02:01:26;;;;;;;12.90;8.18;;;-0.70;99.90;;;3.39;100.00;101364.00;5394862;26;19999;-78
2024/04/23 02:03:53;;;;;;;14.98;8.55;;;-0.70;99.90;;;3.40;100.00;101361.16;5424298;26;20031;-79
2024/04/23 02:06:20;;;;;;;16.48;9.90;;;-0.60;99.90;;;3.22;100.00;101331.47;5428252;26;20010;-79
2024/04/23 02:08:46;;;;;;;16.13;8.80;;;-0.50;99.90;;;3.48;100.00;101365.81;5424142;26;20014;-79
2024/04/23 02:11:13;;;;;;;15.23;8.50;;;-0.60;99.90;;;3.43;100.00;101349.22;5431541;26;19996;-79
2024/04/23 02:13:39;;;;;;;14.57;8.93;;;-0.60;99.90;;;3.36;100.00;101350.81;5418241;26;20014;-79
2024/04/23 02:16:05;;;;;;;17.60;9.20;;;-0.60;99.90;;;3.44;100.00;101359.00;5433344;26;20007;-79
2024/04/23 02:18:32;;;;;;;16.05;9.70;;;-0.60;99.90;;;3.54;100.00;101353.53;5433021;26;19999;-79
2024/04/23 02:20:57;;;;;;;16.30;9.55;;;-0.60;99.90;;;3.16;100.00;101303.25;5415725;26;20004;-79
2024/04/23 02:23:23;;;;;;;15.10;9.43;;;-0.60;99.90;;;3.31;100.00;101327.84;5427500;26;20003;-79
2024/04/23 02:25:49;;;;;;;16.10;8.95;;;-0.60;99.90;;;3.13;100.00;101297.31;5386955;26;20053;-79
2024/04/23 02:28:15;;;;;;;17.70;9.20;;;-0.70;99.90;;;3.24;100.00;101331.31;5400735;26;20474;-79
2024/04/23 02:30:42;;;;;;;16.35;9.38;;;-0.70;99.90;;;3.03;100.00;101305.47;5408611;26;20003;-79
2024/04/23 02:33:11;;;;;;;16.75;9.73;;;-0.80;99.90;;;3.32;100.00;101355.69;5393121;26;20003;-79
2024/04/23 02:35:40;;;;;;;15.27;9.73;;;-0.90;99.90;;;3.17;100.00;101340.00;5404369;26;19995;-79
2024/04/23 02:38:06;;;;;;;17.90;9.65;;;-1.00;99.90;;;3.01;100.00;101342.50;5438468;26;20347;-78
2024/04/23 02:40:32;;;;;;;16.88;9.80;;;-1.00;99.90;;;2.67;100.00;101319.72;5411965;26;20015;-79
2024/04/23 02:42:58;;;;;;;17.73;10.25;;;-1.20;99.90;;;2.18;100.00;101357.53;5425709;26;20006;-79
2024/04/23 02:45:25;;;;;;;16.80;9.52;;;-1.10;99.90;;;2.22;100.00;101360.78;5424079;26;20003;-78
2024/04/23 02:47:51;;;;;;;18.35;10.27;;;-0.90;99.90;;;2.47;100.00;101350.41;5416989;26;19996;-79
2024/04/23 02:50:17;;;;;;;17.02;9.50;;;-0.90;99.90;;;2.51;100.00;101309.53;5416154;26;20025;-79
2024/04/23 02:52:43;;;;;;;18.50;9.73;;;-1.00;99.90;;;2.73;100.00;101337.97;5423556;26;20338;-78
2024/04/23 02:55:09;;;;;;;16.00;9.38;;;-1.10;99.90;;;2.41;100.00;101336.53;5434618;26;20002;-79
2024/04/23 02:57:38;;;;;;;17.45;8.93;;;-1.20;99.90;;;2.12;100.00;101318.59;5409629;26;20010;-79
2024/04/23 03:00:05;;;;;;;16.50;9.15;;;-1.30;99.90;;;2.41;100.00;101331.13;5395378;26;20397;-79
2024/04/23 03:02:32;;;;;;;14.70;9.23;;;-1.50;99.90;;;2.10;100.00;101290.94;5424946;26;20029;-79
2024/04/23 03:04:58;;;;;;;15.43;9.02;;;-1.60;99.90;;;2.13;100.00;101300.59;5433746;26;19999;-79
2024/04/23 03:07:24;;;;;;;15.25;8.52;;;-1.70;99.90;;;2.17;100.00;101312.75;5392373;26;19998;-79
2024/04/23 03:09:50;;;;;;;16.92;9.30;;;-1.70;99.90;;;2.26;100.00;101329.88;5393924;26;20004;-80
2024/04/23 03:12:17;;;;;;;15.70;9.18;;;-1.70;99.90;;;1.99;100.00;101291.13;5392516;26;20022;-79
2024/04/23 03:14:43;;;;;;;18.23;9.70;;;-1.70;99.90;;;2.19;100.00;101316.16;5429588;26;20487;-80
2024/04/23 03:17:09;;;;;;;18.42;9.77;;;-1.80;99.90;;;2.14;100.00;101313.91;5404800;26;20002;-79
2024/04/23 03:19:35;;;;;;;17.65;10.30;;;-1.80;99.90;;;1.99;100.00;101307.28;5408001;26;20348;-79
2024/04/23 03:22:02;;;;;;;17.35;10.10;;;-1.80;99.90;;;2.22;100.00;101331.19;5409004;26;20033;-79
2024/04/23 03:24:28;;;;;;;15.88;9.18;;;-1.90;99.90;;;2.16;100.00;101327.22;5417443;26;20003;-80
2024/04/23 03:26:54;;;;;;;16.35;10.10;;;-1.90;99.90;;;1.98;100.00;101286.72;5415929;26;20007;-80
2024/04/23 03:29:20;;;;;;;20.13;10.13;;;-1.90;99.90;;;1.72;100.00;101335.75;5402174;26;20006;-79
2024/04/23 03:31:47;;;;;;;19.17;10.18;;;-1.80;99.90;;;1.82;100.00;101323.13;5396268;26;20077;-78
2024/04/23 03:34:14;;;;;;;19.33;10.93;;;-1.70;99.90;;;1.81;100.00;101305.28;5413881;26;20006;-79
2024/04/23 03:36:40;;;;;;;21.98;12.07;;;-1.70;99.90;;;1.86;100.00;101334.47;5437987;26;20010;-79
2024/04/23 03:39:06;;;;;;;21.02;11.52;;;-1.70;99.90;;;1.38;100.00;101303.91;5441915;26;20003;-80
2024/04/23 03:41:32;;;;;;;12.40;6.75;;;-1.40;99.90;;;0.74;100.00;101279.16;5391565;26;20344;-79
2024/04/23 03:43:58;;;;;;;17.40;9.00;;;-1.20;99.90;;;0.81;100.00;101277.63;5416603;26;20009;-78
2024/04/23 03:46:25;;;;;;;20.33;10.18;;;-1.20;99.90;;;0.94;100.00;101309.63;5435935;26;20014;-79
2024/04/23 03:48:51;;;;;;;14.67;8.37;;;-1.30;99.90;;;1.01;100.00;101324.22;5433482;26;20073;-79
2024/04/23 03:51:17;;;;;;;16.90;8.98;;;-1.20;99.90;;;1.03;100.00;101324.91;5438467;26;20327;-79
2024/04/23 03:53:44;;;;;;;17.00;9.00;;;-1.30;99.90;;;1.17;100.00;101326.38;5428091;26;20392;-79
2024/04/23 03:56:10;;;;;;;14.25;8.32;;;-1.30;99.90;;;1.27;100.00;101342.50;5411878;26;20020;-78
2024/04/23 03:58:36;;;;;;;15.45;8.85;;;-1.30;99.90;;;1.39;100.00;101345.94;5448732;26;20334;-79
2024/04/23 04:01:02;;;;;;;14.90;9.15;;;-1.30;99.90;;;1.05;100.00;101284.44;5413991;26;20010;-82
2024/04/23 04:06:19;;;;;;;18.30;8.88;;;-1.20;99.90;;;1.40;100.00;101326.94;5433628;26;20003;-79
2024/04/23 04:08:45;;;;;;;17.92;10.23;;;-1.20;99.90;;;1.37;100.00;101300.34;5429003;26;20028;-80
2024/04/23 04:11:11;;;;;;;16.80;10.10;;;-1.20;99.90;;;1.37;100.00;101280.69;5434504;26;20010;-80
2024/04/23 04:13:39;;;;;;;16.95;9.68;;;-1.20;99.90;;;2.14;100.00;101335.44;5453797;26;20040;-82
2024/04/23 04:16:09;;;;;;;17.23;10.38;;;-1.20;99.90;;;2.38;100.00;101314.41;5454046;26;20003;-86
2024/04/23 04:18:39;;;;;;;17.00;9.50;;;-1.40;99.90;;;2.41;100.00;101324.88;5427023;26;19995;-84
2024/04/23 04:21:06;;;;;;;15.80;9.35;;;-1.50;99.90;;;2.22;100.00;101307.78;5434879;26;20002;-80
2024/04/23 04:23:33;;;;;;;15.07;9.23;;;-1.60;99.90;;;2.18;100.00;101322.53;5452459;26;20003;-79
2024/04/23 04:25:59;;;;;;;15.93;9.45;;;-1.70;99.90;;;2.17;100.00;101301.16;5415870;26;19995;-79
2024/04/23 04:28:25;;;;;;;18.52;9.25;;;-1.70;99.90;;;1.97;100.00;101290.41;5396967;26;20086;-79
2024/04/23 04:30:51;;;;;;;17.90;9.32;;;-1.70;99.90;;;1.95;100.00;101312.09;5456155;26;20014;-80
2024/04/23 04:33:17;;;;;;;17.50;9.88;;;-1.70;99.90;;;2.17;100.00;101296.59;5440894;26;19999;-80
2024/04/23 04:35:44;;;;;;;19.35;11.15;;;-1.60;99.90;;;2.48;100.00;101317.06;5441340;26;20023;-80
2024/04/23 04:38:10;;;;;;;19.25;11.20;;;-1.60;99.90;;;2.39;100.00;101281.09;5436533;26;20383;-79
2024/04/23 04:40:36;;;;;;;20.77;10.70;;;-1.50;99.90;;;2.74;100.00;101311.84;5420960;26;20015;-80
2024/04/23 04:43:02;;;;;;;21.75;11.77;;;-1.40;99.90;;;2.49;100.00;101265.72;5397610;26;20039;-80
2024/04/23 04:45:29;;;;;;;18.65;11.02;;;-1.40;99.90;;;2.71;100.00;101288.75;5418538;26;20458;-80
2024/04/23 04:47:55;;;;;;;20.55;11.23;;;-1.30;99.90;;;2.85;100.00;101303.59;5442424;26;20035;-80
2024/04/23 04:50:22;;;;;;;19.02;10.38;;;-1.30;99.90;;;2.88;100.00;101303.28;5433388;26;19999;-80
2024/04/23 04:52:48;;;;;;;19.30;10.82;;;-1.30;99.90;;;2.94;100.00;101309.94;5408027;26;20407;-80
2024/04/23 04:55:14;;;;;;;18.50;10.93;;;-1.30;99.90;;;3.05;100.00;101321.50;5429359;26;20007;-80
2024/04/23 04:57:40;;;;;;;22.75;11.73;;;-1.20;99.90;;;3.00;100.00;101321.94;5407908;26;20002;-80
2024/04/23 05:00:07;;;;;;;19.13;11.15;;;-1.10;99.90;;;3.10;100.00;101328.16;5415533;26;20014;-79
2024/04/23 05:02:33;;;;;;;19.85;11.52;;;-1.10;99.90;;;3.05;100.00;101310.72;5435105;26;20034;-79
2024/04/23 05:04:59;;;;;;;22.33;12.85;;;-1.10;99.90;;;3.24;100.00;101321.38;5420446;26;20000;-80
2024/04/23 05:07:25;;;;;;;20.95;12.13;;;-1.00;99.90;;;3.24;100.00;101290.84;5434252;26;20442;-79
2024/04/23 05:09:52;;;;;;;21.15;12.23;;;-0.90;99.90;;;3.53;100.00;101320.31;5448984;26;20006;-80
2024/04/23 05:12:18;;;;;;;25.63;12.40;;;-0.80;99.90;;;3.43;100.00;101309.59;5400761;26;19999;-78
2024/04/23 05:14:47;;;;;;;20.85;12.27;;;-0.70;99.90;;;3.41;100.00;101326.94;5434253;26;20017;-79
2024/04/23 05:17:13;;;;;;;21.60;12.73;;;-0.50;99.90;;;3.75;100.00;101328.97;5391578;26;20000;-78
2024/04/23 05:19:44;;;;;;;24.30;13.50;;;-0.40;99.90;;;3.85;100.00;101313.53;5444605;26;19998;-78
2024/04/23 05:22:11;;;;;;;22.95;13.57;;;-0.40;99.90;;;4.12;100.00;101330.59;5388288;26;20068;-78
2024/04/23 05:24:38;;;;;;;26.58;14.23;;;-0.30;99.90;;;4.11;100.00;101314.53;5427867;26;20021;-78
2024/04/23 05:27:04;;;;;;;25.65;14.90;;;-0.20;99.90;;;4.37;100.00;101333.47;5441409;26;20000;-78
2024/04/23 05:29:30;;;;;;;27.10;15.27;;;-0.10;99.90;;;4.25;100.00;101324.78;5409939;26;20014;-78
2024/04/23 05:34:40;;;;;;;28.90;16.98;;;0.20;99.90;;;4.35;100.00;101330.09;5424910;26;20033;-77
2024/04/23 05:37:07;;;;;;;30.80;17.75;;;0.30;99.90;;;4.44;100.00;101321.00;5407565;26;20010;-77
2024/04/23 05:39:33;;;;;;;29.30;17.50;;;0.40;99.90;;;4.34;100.00;101333.81;5373776;26;20013;-76
2024/04/23 05:41:59;;;;;;;33.42;18.75;;;0.60;99.90;;;4.33;100.00;101345.63;5426783;26;20071;-77
2024/04/23 05:44:25;;;;;;;30.63;17.80;;;0.70;99.90;;;3.93;100.00;101323.53;5401905;26;20031;-79
2024/04/23 05:46:51;;;;;;;26.48;16.02;;;0.80;99.90;;;3.67;100.00;101328.88;5405499;26;20007;-79
2024/04/23 05:50:14;;;;;;;24.33;14.25;;;0.90;99.90;;;3.63;100.00;101346.38;5422014;26;20003;-79
2024/04/23 05:53:57;;;;;;;28.42;14.57;;;0.80;99.90;;;3.95;100.00;101339.56;5449282;26;20035;-79
2024/04/23 05:56:42;;;;;;;25.48;15.25;;;0.90;99.90;;;4.88;100.00;101338.16;5415123;26;20072;-78
2024/04/23 05:59:08;;;;;;;25.38;15.45;;;1.00;99.90;;;4.89;100.00;101339.84;5423993;26;19999;-78
2024/04/23 06:01:34;;;;;;;25.13;15.73;;;1.20;99.90;;;5.40;100.00;101310.06;5447717;26;20005;-78
2024/04/23 06:04:00;;;;;;;27.23;15.68;;;1.40;99.90;;;5.39;99.22;101332.72;5419152;26;19999;-77
2024/04/23 06:06:26;;;;;;;27.45;16.92;;;1.50;99.90;;;4.85;99.05;101327.66;5429403;26;20073;-77
2024/04/23 06:08:52;;;;;;;27.40;17.05;;;1.70;99.90;;;5.27;99.21;101350.28;5417937;26;20008;-78
2024/04/23 06:11:18;;;;;;;28.42;16.67;;;1.70;99.90;;;5.24;97.61;101335.22;5390294;26;20000;-78
2024/04/23 06:13:47;;;;;;;24.77;15.82;;;1.80;99.90;;;5.78;95.53;101342.09;5438617;26;20007;-78
2024/04/23 06:16:13;;;;;;;26.45;16.27;;;1.90;99.90;;;6.44;92.51;101331.25;5398985;26;20000;-78
2024/04/23 06:18:42;;;;;;;25.80;15.63;;;2.10;99.90;;;6.26;91.41;101295.38;5387341;26;20014;-78
2024/04/23 06:21:13;;;;;;;25.55;16.65;;;2.30;99.90;;;6.74;92.41;101336.94;5417144;26;20002;-78
2024/04/23 06:23:39;;;;;;;26.65;15.82;;;2.50;99.90;;;6.74;93.14;101334.22;5448883;26;20060;-79
2024/04/23 06:26:06;;;;;;;25.83;16.42;;;2.70;99.90;;;6.53;91.93;101318.53;5409816;26;20011;-78
2024/04/23 06:28:33;;;;;;;23.35;14.45;;;2.80;99.90;;;6.78;91.01;101304.88;5416324;26;20010;-78
2024/04/23 06:31:01;;;;;;;22.95;14.60;;;2.90;99.90;;;7.02;89.27;101335.63;5435709;26;20006;-79
2024/04/23 06:33:27;;;;;;;21.35;13.63;;;3.10;99.90;;;7.27;87.83;101308.34;5409237;26;20042;-78
2024/04/23 06:35:53;;;;;;;20.88;14.00;;;3.20;99.90;;;6.86;89.58;101323.84;5410763;26;19999;-78
2024/04/23 06:38:19;;;;;;;19.92;13.00;;;3.30;99.90;;;7.30;88.96;101318.88;5417801;26;20077;-79
2024/04/23 06:40:45;;;;;;;22.02;13.27;;;3.40;99.90;;;7.41;87.36;101323.03;5435125;26;19995;-78
2024/04/23 06:43:11;;;;;;;25.25;13.32;;;3.60;99.90;;;7.00;87.42;101314.09;5390166;26;20447;-79
2024/04/23 06:45:37;;;;;;;18.30;12.52;;;3.70;99.90;;;7.49;84.40;101317.56;5426125;26;19994;-78
2024/04/23 06:48:04;;;;;;;16.90;10.95;;;3.80;99.90;;;7.12;85.29;101289.28;5456308;26;20026;-77
2024/04/23 06:50:30;;;;;;;16.10;10.57;;;3.90;99.90;;;7.39;83.32;101308.78;5407028;26;19998;-78
2024/04/23 06:52:56;;;;;;;14.00;9.45;;;4.00;99.90;;;7.65;79.70;101299.44;5436469;26;20007;-77
2024/04/23 06:55:22;;;;;;;15.65;9.00;;;4.20;99.90;;;7.70;77.36;101288.91;5410479;26;20011;-78
2024/04/23 06:57:53;;;;;;;12.80;8.07;;;4.30;99.90;;;7.96;76.04;101296.66;5416491;26;20006;-78
2024/04/23 07:00:19;;;;;;;13.55;8.07;;;4.40;99.90;;;7.95;74.43;101258.78;5413947;26;20003;-78
2024/04/23 07:02:45;;;;;;;11.45;6.90;;;4.60;99.90;;;8.07;71.41;101271.75;5463107;26;19999;-78
2024/04/23 07:05:11;;;;;;;9.80;6.32;;;4.70;99.90;;;8.40;70.78;101286.06;5436428;26;20022;-77
2024/04/23 07:07:37;;;;;;;10.38;5.70;;;4.90;99.90;;;8.20;68.90;101260.22;5393865;26;20010;-78
2024/04/23 07:10:05;;;;;;;8.35;5.35;;;5.10;99.90;;;8.62;66.88;101281.56;5396557;26;19998;-77
2024/04/23 07:12:31;;;;;;;9.13;5.38;;;5.20;99.90;;;8.24;68.57;101268.88;5401568;26;20007;-78
2024/04/23 07:14:58;;;;;;;8.68;5.05;;;5.30;99.90;;;8.24;68.94;101232.72;5415046;26;20003;-77
2024/04/23 07:17:24;;;;;;;6.93;4.75;;;5.40;99.90;;;8.53;64.70;101269.13;5378396;26;19994;-78
2024/04/23 07:19:50;;;;;;;10.60;5.57;;;5.40;99.90;;;8.63;68.87;101265.06;5417529;26;19999;-78
2024/04/23 07:22:16;;;;;;;10.27;5.40;;;5.50;99.90;;;8.53;63.82;101220.16;5432959;26;19995;-78
2024/04/23 07:24:42;;;;;;;8.52;4.80;;;5.60;99.90;;;8.43;65.92;101270.19;5444436;26;20135;-77
2024/04/23 07:27:09;;;;;;;9.57;5.75;;;5.60;99.90;;;8.45;64.61;101223.78;5404116;26;20005;-77
2024/04/23 07:29:35;;;;;;;10.35;5.45;;;5.70;99.90;;;8.51;64.79;101238.53;5435767;26;20002;-77
2024/04/23 07:32:01;;;;;;;8.35;5.60;;;5.70;99.90;;;8.89;65.40;101241.09;5411101;26;20000;-78
2024/04/23 07:34:27;;;;;;;9.70;6.18;;;5.80;99.90;;;8.63;60.96;101237.03;5429190;26;19999;-77
2024/04/23 07:36:53;;;;;;;9.65;5.95;;;5.80;99.90;;;8.89;61.40;101235.66;5436617;26;19998;-78
2024/04/23 07:39:19;;;;;;;9.60;5.97;;;5.80;99.90;;;9.15;63.34;101212.50;5442407;26;20136;-79
2024/04/23 07:41:46;;;;;;;9.63;6.47;;;5.90;99.90;;;9.10;63.33;101210.34;5396097;26;20033;-78
2024/04/23 07:44:13;;;;;;;9.35;5.55;;;6.20;99.90;;;9.15;60.90;101224.25;5434828;26;20006;-77
2024/04/23 07:46:39;;;;;;;9.20;5.40;;;6.30;99.90;;;9.25;59.28;101220.34;5428423;26;20037;-78
2024/04/23 07:49:05;;;;;;;8.10;5.38;;;6.20;99.90;;;8.91;59.31;101220.84;5421510;26;20119;-78
2024/04/23 07:51:32;;;;;;;8.18;5.80;;;6.10;99.90;;;9.79;59.05;101222.50;5441608;26;19999;-75
2024/04/23 07:53:58;;;;;;;9.90;5.10;;;6.30;99.90;;;9.79;60.91;101224.38;5438732;26;20007;-76
2024/04/23 07:56:24;;;;;;;9.20;5.70;;;6.60;99.90;;;10.05;60.42;101236.53;5434354;26;20010;-76
2024/04/23 07:58:50;;;;;;;8.18;5.30;;;6.70;99.90;;;10.04;57.38;101202.97;5401125;26;20335;-76
2024/04/23 08:01:17;;;;;;;10.95;5.70;;;6.70;99.90;;;10.17;57.44;101210.41;5415244;26;20073;-77
2024/04/23 08:03:43;;;;;;;10.85;5.75;;;6.80;99.90;;;9.93;58.25;101209.81;5389097;26;20143;-78
2024/04/23 08:06:09;;;;;;;9.27;5.60;;;6.80;99.90;;;9.61;55.35;101148.59;5456921;26;20352;-77
2024/04/23 08:08:35;;;;;;;8.70;5.50;;;6.80;99.90;;;9.88;54.01;101165.97;5419058;26;20010;-77
2024/04/23 08:11:02;;;;;;;9.02;5.60;;;;;;;10.52;54.24;101189.63;5423106;26;19994;-76
2024/04/23 08:13:30;;;;;;;9.65;5.60;;;;;;;11.20;53.14;101186.88;5458557;26;20059;-78
2024/04/23 08:15:57;;;;;;;10.95;6.00;;;;;;;10.56;54.51;101180.84;5450125;26;20017;-77
2024/04/23 08:18:23;;;;;;;10.30;5.63;;;6.90;99.90;;;11.20;53.23;101186.03;5454661;26;19998;-77
2024/04/23 08:20:50;;;;;;;10.20;5.70;;;7.70;99.90;;;10.82;53.74;101142.91;5461184;26;20006;-78
2024/04/23 08:23:19;;;;;;;10.77;6.00;;;7.70;99.90;;;11.45;50.92;101134.34;5432269;26;19999;-78
2024/04/23 08:25:46;;;;;;;8.25;5.38;;;7.80;99.90;;;11.48;50.53;101130.38;5449904;26;20009;-77
2024/04/23 08:28:12;;;;;;;10.68;5.68;;;8.00;99.90;;;11.77;51.09;101117.31;5399262;26;19999;-76
2024/04/23 08:30:38;;;;;;;9.77;5.22;;;8.20;99.90;;;10.99;51.00;101110.59;5413278;26;19995;-77
2024/04/23 08:33:05;;;;;;;10.20;6.45;;;;;;;11.71;50.04;101135.38;5436404;26;20071;-77
2024/04/23 08:35:31;;;;;;;9.43;5.90;;;8.40;99.90;;;11.64;49.73;101119.00;5451845;26;20022;-77
2024/04/23 08:37:58;;;;;;;11.70;6.55;;;8.80;99.90;;;11.71;50.22;101120.91;5458543;26;20013;-77
2024/04/23 08:40:26;;;;;;;11.38;7.18;;;8.90;99.90;;;12.14;47.61;101105.88;5420785;26;20014;-77
2024/04/23 08:43:00;;;;;;;10.82;6.72;;;8.80;99.90;;;12.05;48.30;101102.53;5449285;26;20056;-78
2024/04/23 08:45:34;;;;;;;10.05;6.10;;;8.90;99.90;;;11.75;46.58;101062.84;5449981;26;19999;-77
2024/04/23 08:48:02;;;;;;;9.75;5.50;;;;;;;12.67;48.06;101099.28;5451744;26;20002;-78
2024/04/23 08:50:30;;;;;;;10.48;5.90;;;;;;;12.02;49.60;101119.38;5419178;26;20010;-78
2024/04/23 08:53:01;;;;;;;9.35;6.00;;;;;;;11.89;50.65;101134.72;5436560;26;20015;-77
2024/04/23 08:55:29;;;;;;;9.70;5.93;;;;;;;11.92;50.76;101131.56;5465804;26;20002;-78
2024/04/23 08:57:56;;;;;;;9.63;5.35;;;8.90;99.90;;;12.72;50.80;101124.09;5440517;26;20032;-78
2024/04/23 09:00:22;;;;;;;8.27;5.45;;;9.70;99.90;;;13.78;47.50;101104.31;5444043;26;20009;-78
2024/04/23 09:02:50;;;;;;;8.75;5.22;;;10.30;99.90;;;13.54;45.30;101053.13;5454439;26;20049;-78
2024/04/23 09:05:18;;;;;;;;;;;10.50;99.90;;;14.02;44.54;101052.38;5444124;26;20040;-79
2024/04/23 09:07:45;;;;;;;8.75;5.18;;;10.90;99.50;;;14.01;44.56;101050.69;5443442;26;19964;-78
2024/04/23 09:10:11;;;;;;;9.18;5.35;;;11.00;99.90;;;12.37;44.67;100976.75;5411549;26;20059;-78
2024/04/23 09:12:38;;;;;;;7.72;5.28;;;10.40;98.50;;;12.91;46.20;101039.31;5434234;26;20002;-79
2024/04/23 09:15:06;;;;;;;7.20;4.90;;;9.70;99.90;;;12.83;44.50;101015.78;5414078;26;20011;-77
2024/04/23 09:17:35;;;;;;;7.72;4.63;;;9.60;99.90;;;13.14;43.70;101007.75;5411041;26;20003;-77
2024/04/23 09:20:02;;;;;;;8.82;5.22;;;9.60;99.90;;;12.26;45.02;101002.09;5417292;26;19999;-78
2024/04/23 09:22:28;;;;;;;8.68;5.32;;;9.40;99.90;;;12.34;47.00;101051.06;5453275;26;20000;-77
2024/04/23 09:25:03;;;;;;;8.95;5.25;;;9.30;99.90;;;12.08;46.23;101017.31;5450375;26;20184;-77
2024/04/23 09:27:36;;;;;;;7.80;4.60;;;9.20;99.90;;;12.50;45.25;101020.47;5440184;26;20414;-78
2024/04/23 09:30:04;;;;;;;7.43;4.68;;;9.10;99.90;;;13.07;43.50;100986.72;5435886;26;20003;-77
2024/04/23 09:32:30;;;;;;;8.18;4.47;;;9.50;99.20;;;13.44;42.11;100982.38;5428414;26;19995;-77
2024/04/23 09:34:56;;;;;;;7.78;5.07;;;9.80;97.40;;;13.98;39.72;100918.66;5420250;26;20031;-78
2024/04/23 09:37:22;;;;;;;6.32;4.35;;;10.30;94.50;;;14.27;39.62;100918.84;5436818;26;20005;-76
2024/04/23 09:39:49;;;;;;;6.93;4.47;;;11.00;95.80;;;13.99;41.11;100931.28;5442536;26;20453;-79
2024/04/23 09:42:24;;;;;;;8.43;4.75;;;11.30;96.00;;;14.31;41.47;100952.97;5413942;26;20060;-78
2024/04/23 09:44:52;;;;;;;6.55;4.30;;;11.20;96.50;;;14.32;41.18;100950.00;5425822;26;20003;-77
2024/04/23 09:47:19;;;;;;;6.78;4.32;;;11.40;95.60;;;13.41;40.13;100908.81;5415424;26;20442;-77
2024/04/23 09:49:55;;;;;;;7.70;4.57;;;10.90;93.00;;;13.83;38.24;100892.50;5409655;26;20007;-78
2024/04/23 09:52:32;;;;;;;7.53;4.20;;;10.90;91.10;;;14.86;37.87;100888.75;5395735;26;20102;-77
2024/04/23 09:54:58;;;;;;;7.63;4.20;;;11.30;92.40;;;14.72;38.02;100888.16;5431181;26;19999;-77
2024/04/23 09:57:25;;;;;;;7.15;4.30;;;11.70;92.40;;;14.87;38.96;100919.81;5431730;26;20015;-77
2024/04/23 09:59:53;;;;;;;6.53;4.03;;;11.90;91.60;;;14.96;37.33;100880.72;5418062;26;19995;-78
2024/04/23 10:02:28;;;;;;;6.50;3.85;;;12.10;90.60;;;15.76;37.05;100891.16;5447047;26;19998;-78
2024/04/23 10:05:09;;;;;;;7.13;4.20;;;;;;;16.30;34.98;100872.59;5417197;26;20003;-76
2024/04/23 10:07:57;;;;;;;5.50;3.67;;;;;;;16.31;34.37;100844.84;5443600;26;20006;-77
2024/04/23 10:10:40;;;;;;;7.13;4.47;;;;;;;16.15;34.07;100821.69;5435956;26;20007;-77
2024/04/23 10:13:21;;;;;;;6.47;4.35;;;;;;;16.89;33.69;100849.25;5426891;26;20222;-77
2024/04/23 10:16:02;;;;;;;5.55;3.70;;;;;;;18.55;32.16;100865.66;5444036;26;20014;-77
2024/04/23 10:18:36;;;;;;;6.32;3.90;;;;;;;18.93;30.25;100843.50;5438861;26;20021;-78
2024/04/23 10:21:08;;;;;;;6.75;3.80;;;;;;;21.48;28.88;100884.91;5419879;26;20006;-78
2024/04/23 10:23:39;;;;;;;11.27;5.13;;;;;;;21.70;28.90;100870.66;5418659;26;20010;-79